MiSS Sarah — WDE9595 — position and weather

sailwx.info

Track history (hours):
 
Tides and Currents Weather Stations Pressure Air Temp Water Temp Dewpoint Dewpoint Depression Visibility Wind Speed Wind Dir Waves Ship Positions

MiSS Sarah

Owner: Higman Barge Lines, Inc, Orange, TX. More information available from US FCC via Universal Licensing System and Coast Guard Vessel Documentation Center.

Last reported at 2015-Apr-15 08:22 UTC. Time now 2015-Apr-21 11:40 UTC.
Position N 29°23' W 094°49'.

Length 24 m; draft 8 m.

Type: Towing. MMSI: 367419040.

Date/timePositionNaut miles runAvg speedWind from/ knotsBaromVisibWave heightAir tempDewpointWater temp
2015-Apr-15 08:22N 29°23' W 094°49'6 6.8
2015-Apr-15 07:29N 29°29' W 094°52'6 6.6
2015-Apr-15 06:33N 29°34' W 094°55'7 6.7
2015-Apr-15 05:33N 29°40' W 094°59'6 6.3
2015-Apr-15 04:33N 29°45' W 095°04'2 0.7
2015-Apr-15 01:32N 29°47' W 095°05'5 4.9
2015-Apr-15 00:33N 29°44' W 095°10'2 0.3
2015-Apr-14 17:28N 29°44' W 095°12'0 0.0
2015-Apr-14 04:18N 29°44' W 095°12'0 0.2
2015-Apr-14 03:05N 29°44' W 095°12'0 0.1
2015-Apr-14 02:32N 29°44' W 095°12'0 0.0
2015-Apr-14 01:05N 29°44' W 095°12'0 0.2
2015-Apr-14 00:32N 29°44' W 095°12'4 4.3
2015-Apr-13 23:33N 29°44' W 095°07'2 2.5
2015-Apr-13 22:33N 29°46' W 095°05'0 0.0
2015-Apr-13 21:33N 29°46' W 095°05'0 0.0
2015-Apr-13 20:33N 29°46' W 095°05'0 0.0
2015-Apr-13 19:32N 29°46' W 095°05'2 1.8
2015-Apr-13 18:33N 29°45' W 095°07'0 0.0
2015-Apr-13 17:33N 29°45' W 095°07'0 0.0
2015-Apr-13 16:33N 29°45' W 095°07'0 0.0
2015-Apr-13 15:31N 29°45' W 095°07'0 0.0
2015-Apr-13 14:33N 29°45' W 095°07'2 1.7
2015-Apr-13 13:33N 29°46' W 095°05'0 0.0
2015-Apr-13 12:32N 29°46' W 095°05'0 0.0
2015-Apr-13 11:33N 29°46' W 095°05'0 0.0
2015-Apr-13 10:33N 29°46' W 095°05'0 0.0
2015-Apr-13 09:32N 29°46' W 095°05'0 0.0
2015-Apr-13 08:33N 29°46' W 095°05'0 0.0
2015-Apr-13 07:30N 29°46' W 095°05'0 0.0
2015-Apr-13 06:33N 29°46' W 095°05'0 0.0
2015-Apr-13 05:33N 29°46' W 095°05'0 0.0
2015-Apr-13 04:32N 29°46' W 095°05'1 1.0
2015-Apr-13 03:33N 29°47' W 095°05'0 0.0
2015-Apr-13 02:33N 29°47' W 095°05'2 1.6
2015-Apr-13 01:33N 29°45' W 095°04'5 5.0
2015-Apr-13 00:33N 29°42' W 094°60'7 7.2
2015-Apr-12 23:33N 29°35' W 094°56'7 7.2
2015-Apr-12 22:32N 29°29' W 094°52'8 6.9
2015-Apr-12 21:20N 29°21' W 094°49'  
Track history (hours):
 
Tides and Currents Weather Stations Pressure Air Temp Water Temp Dewpoint Dewpoint Depression Visibility Wind Speed Wind Dir Waves Ship Positions

MiSS Sarah

Owner: Higman Barge Lines, Inc, Orange, TX. More information available from US FCC via Universal Licensing System and Coast Guard Vessel Documentation Center.

Last reported at 2015-Apr-15 08:22 UTC. Time now 2015-Apr-21 11:40 UTC.
Position N 29°23' W 094°49'.

Length 24 m; draft 8 m.

Type: Towing. MMSI: 367419040.

Date/timePositionNaut miles runAvg speedWind from/ knotsBaromVisibWave heightAir tempDewpointWater temp
2015-Apr-15 08:22N 29°23' W 094°49'6 6.8
2015-Apr-15 07:29N 29°29' W 094°52'6 6.6
2015-Apr-15 06:33N 29°34' W 094°55'7 6.7
2015-Apr-15 05:33N 29°40' W 094°59'6 6.3
2015-Apr-15 04:33N 29°45' W 095°04'2 0.7
2015-Apr-15 01:32N 29°47' W 095°05'5 4.9
2015-Apr-15 00:33N 29°44' W 095°10'2 0.3
2015-Apr-14 17:28N 29°44' W 095°12'0 0.0
2015-Apr-14 04:18N 29°44' W 095°12'0 0.2
2015-Apr-14 03:05N 29°44' W 095°12'0 0.1
2015-Apr-14 02:32N 29°44' W 095°12'0 0.0
2015-Apr-14 01:05N 29°44' W 095°12'0 0.2
2015-Apr-14 00:32N 29°44' W 095°12'4 4.3
2015-Apr-13 23:33N 29°44' W 095°07'2 2.5
2015-Apr-13 22:33N 29°46' W 095°05'0 0.0
2015-Apr-13 21:33N 29°46' W 095°05'0 0.0
2015-Apr-13 20:33N 29°46' W 095°05'0 0.0
2015-Apr-13 19:32N 29°46' W 095°05'2 1.8
2015-Apr-13 18:33N 29°45' W 095°07'0 0.0
2015-Apr-13 17:33N 29°45' W 095°07'0 0.0
2015-Apr-13 16:33N 29°45' W 095°07'0 0.0
2015-Apr-13 15:31N 29°45' W 095°07'0 0.0
2015-Apr-13 14:33N 29°45' W 095°07'2 1.7
2015-Apr-13 13:33N 29°46' W 095°05'0 0.0
2015-Apr-13 12:32N 29°46' W 095°05'0 0.0
2015-Apr-13 11:33N 29°46' W 095°05'0 0.0
2015-Apr-13 10:33N 29°46' W 095°05'0 0.0
2015-Apr-13 09:32N 29°46' W 095°05'0 0.0
2015-Apr-13 08:33N 29°46' W 095°05'0 0.0
2015-Apr-13 07:30N 29°46' W 095°05'0 0.0
2015-Apr-13 06:33N 29°46' W 095°05'0 0.0
2015-Apr-13 05:33N 29°46' W 095°05'0 0.0
2015-Apr-13 04:32N 29°46' W 095°05'1 1.0
2015-Apr-13 03:33N 29°47' W 095°05'0 0.0
2015-Apr-13 02:33N 29°47' W 095°05'2 1.6
2015-Apr-13 01:33N 29°45' W 095°04'5 5.0
2015-Apr-13 00:33N 29°42' W 094°60'7 7.2
2015-Apr-12 23:33N 29°35' W 094°56'7 7.2
2015-Apr-12 22:32N 29°29' W 094°52'8 6.9
2015-Apr-12 21:20N 29°21' W 094°49'  

Dump ship's entire track history